sensor_id;sensor_type;location;lat;lon;timestamp;P1;durP1;ratioP1;P2;durP2;ratioP2
1523;SDS011;755;53.658;10.118;2023-07-08T00:03:24;4.78;;;3.20;;
1523;SDS011;755;53.658;10.118;2023-07-08T00:13:26;9.63;;;3.30;;
1523;SDS011;755;53.658;10.118;2023-07-08T00:23:30;11.13;;;3.55;;
1523;SDS011;755;53.658;10.118;2023-07-08T00:33:32;7.95;;;3.85;;
1523;SDS011;755;53.658;10.118;2023-07-08T00:43:36;6.00;;;3.35;;
1523;SDS011;755;53.658;10.118;2023-07-08T00:53:40;7.28;;;3.92;;
1523;SDS011;755;53.658;10.118;2023-07-08T01:03:45;9.73;;;4.15;;
1523;SDS011;755;53.658;10.118;2023-07-08T01:13:51;5.88;;;4.03;;
1523;SDS011;755;53.658;10.118;2023-07-08T01:23:55;6.85;;;3.75;;
1523;SDS011;755;53.658;10.118;2023-07-08T01:33:58;8.25;;;4.30;;
1523;SDS011;755;53.658;10.118;2023-07-08T01:44:01;9.30;;;4.10;;
1523;SDS011;755;53.658;10.118;2023-07-08T01:54:03;8.75;;;4.63;;
1523;SDS011;755;53.658;10.118;2023-07-08T02:04:06;9.55;;;4.43;;
1523;SDS011;755;53.658;10.118;2023-07-08T02:14:08;9.95;;;4.75;;
1523;SDS011;755;53.658;10.118;2023-07-08T02:24:12;17.90;;;4.80;;
1523;SDS011;755;53.658;10.118;2023-07-08T02:34:17;7.97;;;4.70;;
1523;SDS011;755;53.658;10.118;2023-07-08T02:44:20;5.30;;;3.97;;
1523;SDS011;755;53.658;10.118;2023-07-08T02:54:22;8.82;;;5.03;;
1523;SDS011;755;53.658;10.118;2023-07-08T03:04:25;10.05;;;4.22;;
1523;SDS011;755;53.658;10.118;2023-07-08T03:14:27;10.23;;;4.45;;
1523;SDS011;755;53.658;10.118;2023-07-08T03:24:31;6.63;;;4.88;;
1523;SDS011;755;53.658;10.118;2023-07-08T03:34:33;9.45;;;4.32;;
1523;SDS011;755;53.658;10.118;2023-07-08T03:44:36;8.30;;;5.00;;
1523;SDS011;755;53.658;10.118;2023-07-08T03:54:38;7.13;;;4.57;;
1523;SDS011;755;53.658;10.118;2023-07-08T04:04:41;19.70;;;4.75;;
1523;SDS011;755;53.658;10.118;2023-07-08T04:14:43;8.27;;;4.93;;
1523;SDS011;755;53.658;10.118;2023-07-08T04:24:46;9.63;;;5.65;;
1523;SDS011;755;53.658;10.118;2023-07-08T04:34:48;8.50;;;5.05;;
1523;SDS011;755;53.658;10.118;2023-07-08T04:44:52;11.10;;;4.45;;
1523;SDS011;755;53.658;10.118;2023-07-08T04:54:54;10.98;;;4.50;;
1523;SDS011;755;53.658;10.118;2023-07-08T05:04:57;5.93;;;4.18;;
1523;SDS011;755;53.658;10.118;2023-07-08T05:14:59;6.72;;;4.10;;
1523;SDS011;755;53.658;10.118;2023-07-08T05:25:03;3.55;;;2.80;;
1523;SDS011;755;53.658;10.118;2023-07-08T05:35:06;5.95;;;2.95;;
1523;SDS011;755;53.658;10.118;2023-07-08T05:45:09;4.90;;;2.55;;
1523;SDS011;755;53.658;10.118;2023-07-08T05:55:11;5.60;;;2.45;;
1523;SDS011;755;53.658;10.118;2023-07-08T06:05:15;12.02;;;2.53;;
1523;SDS011;755;53.658;10.118;2023-07-08T06:15:17;7.90;;;2.60;;
1523;SDS011;755;53.658;10.118;2023-07-08T06:25:20;4.53;;;2.03;;
1523;SDS011;755;53.658;10.118;2023-07-08T06:35:22;7.18;;;2.28;;
1523;SDS011;755;53.658;10.118;2023-07-08T06:45:25;8.13;;;2.25;;
1523;SDS011;755;53.658;10.118;2023-07-08T06:55:27;5.60;;;2.50;;
1523;SDS011;755;53.658;10.118;2023-07-08T07:05:31;4.72;;;1.88;;
1523;SDS011;755;53.658;10.118;2023-07-08T07:15:34;4.95;;;2.20;;
1523;SDS011;755;53.658;10.118;2023-07-08T07:25:37;7.38;;;2.10;;
1523;SDS011;755;53.658;10.118;2023-07-08T07:35:41;4.07;;;2.08;;
1523;SDS011;755;53.658;10.118;2023-07-08T07:45:45;3.40;;;1.90;;
1523;SDS011;755;53.658;10.118;2023-07-08T07:55:55;4.78;;;2.10;;
1523;SDS011;755;53.658;10.118;2023-07-08T08:05:59;2.47;;;1.67;;
1523;SDS011;755;53.658;10.118;2023-07-08T08:16:01;1.63;;;1.48;;
1523;SDS011;755;53.658;10.118;2023-07-08T08:26:05;4.85;;;2.08;;
1523;SDS011;755;53.658;10.118;2023-07-08T08:36:07;5.05;;;1.95;;
1523;SDS011;755;53.658;10.118;2023-07-08T08:46:12;3.70;;;1.70;;
1523;SDS011;755;53.658;10.118;2023-07-08T08:56:24;2.95;;;1.60;;
1523;SDS011;755;53.658;10.118;2023-07-08T09:06:30;4.22;;;1.70;;
1523;SDS011;755;53.658;10.118;2023-07-08T09:26:43;2.95;;;1.50;;
1523;SDS011;755;53.658;10.118;2023-07-08T09:36:48;8.47;;;2.00;;
1523;SDS011;755;53.658;10.118;2023-07-08T09:46:52;5.30;;;1.63;;
1523;SDS011;755;53.658;10.118;2023-07-08T09:56:57;2.95;;;1.77;;
1523;SDS011;755;53.658;10.118;2023-07-08T10:07:02;3.47;;;1.70;;
1523;SDS011;755;53.658;10.118;2023-07-08T10:17:13;6.00;;;1.73;;
1523;SDS011;755;53.658;10.118;2023-07-08T10:27:21;2.83;;;2.13;;
1523;SDS011;755;53.658;10.118;2023-07-08T10:37:27;3.13;;;1.98;;
1523;SDS011;755;53.658;10.118;2023-07-08T10:47:45;2.47;;;1.90;;
1523;SDS011;755;53.658;10.118;2023-07-08T10:58:02;3.85;;;1.70;;
1523;SDS011;755;53.658;10.118;2023-07-08T11:08:37;2.95;;;2.03;;
1523;SDS011;755;53.658;10.118;2023-07-08T11:18:47;5.45;;;2.08;;
1523;SDS011;755;53.658;10.118;2023-07-08T11:28:56;3.25;;;1.77;;
1523;SDS011;755;53.658;10.118;2023-07-08T11:38:59;3.40;;;1.77;;
1523;SDS011;755;53.658;10.118;2023-07-08T11:49:05;1.70;;;1.58;;
1523;SDS011;755;53.658;10.118;2023-07-08T11:59:15;3.72;;;1.92;;
1523;SDS011;755;53.658;10.118;2023-07-08T12:19:47;4.30;;;2.33;;
1523;SDS011;755;53.658;10.118;2023-07-08T12:30:12;2.08;;;1.88;;
1523;SDS011;755;53.658;10.118;2023-07-08T12:50:20;6.30;;;2.00;;
1523;SDS011;755;53.658;10.118;2023-07-08T13:00:24;6.25;;;2.08;;
1523;SDS011;755;53.658;10.118;2023-07-08T13:10:33;3.20;;;2.13;;
1523;SDS011;755;53.658;10.118;2023-07-08T13:20:37;3.30;;;1.63;;
1523;SDS011;755;53.658;10.118;2023-07-08T13:30:49;4.07;;;2.08;;
1523;SDS011;755;53.658;10.118;2023-07-08T13:40:54;4.35;;;1.90;;
1523;SDS011;755;53.658;10.118;2023-07-08T13:51:01;2.17;;;1.80;;
1523;SDS011;755;53.658;10.118;2023-07-08T14:01:11;2.65;;;2.00;;
1523;SDS011;755;53.658;10.118;2023-07-08T14:22:37;3.22;;;2.00;;
1523;SDS011;755;53.658;10.118;2023-07-08T14:32:40;2.92;;;1.95;;
1523;SDS011;755;53.658;10.118;2023-07-08T14:43:13;4.25;;;2.25;;
1523;SDS011;755;53.658;10.118;2023-07-08T14:54:18;3.90;;;2.45;;
1523;SDS011;755;53.658;10.118;2023-07-08T15:04:12;3.92;;;2.13;;
1523;SDS011;755;53.658;10.118;2023-07-08T15:14:19;3.80;;;2.63;;
1523;SDS011;755;53.658;10.118;2023-07-08T15:24:25;4.43;;;2.27;;
1523;SDS011;755;53.658;10.118;2023-07-08T15:34:27;3.17;;;2.03;;
1523;SDS011;755;53.658;10.118;2023-07-08T15:44:30;5.07;;;2.50;;
1523;SDS011;755;53.658;10.118;2023-07-08T15:54:32;6.00;;;1.70;;
1523;SDS011;755;53.658;10.118;2023-07-08T16:04:36;7.30;;;2.20;;
1523;SDS011;755;53.658;10.118;2023-07-08T16:14:38;8.27;;;1.83;;
1523;SDS011;755;53.658;10.118;2023-07-08T16:24:41;2.65;;;1.63;;
1523;SDS011;755;53.658;10.118;2023-07-08T16:34:46;3.95;;;1.77;;
1523;SDS011;755;53.658;10.118;2023-07-08T16:44:49;5.57;;;1.70;;
1523;SDS011;755;53.658;10.118;2023-07-08T16:54:51;3.47;;;1.63;;
1523;SDS011;755;53.658;10.118;2023-07-08T17:04:55;3.42;;;1.80;;
1523;SDS011;755;53.658;10.118;2023-07-08T17:14:57;5.85;;;2.33;;
1523;SDS011;755;53.658;10.118;2023-07-08T17:25:00;3.38;;;1.60;;
1523;SDS011;755;53.658;10.118;2023-07-08T17:45:11;3.13;;;1.58;;
1523;SDS011;755;53.658;10.118;2023-07-08T17:55:14;4.50;;;2.05;;
1523;SDS011;755;53.658;10.118;2023-07-08T18:05:20;4.32;;;2.05;;
1523;SDS011;755;53.658;10.118;2023-07-08T18:15:26;3.72;;;1.73;;
1523;SDS011;755;53.658;10.118;2023-07-08T18:25:32;4.97;;;2.15;;
1523;SDS011;755;53.658;10.118;2023-07-08T18:35:37;7.53;;;1.70;;
1523;SDS011;755;53.658;10.118;2023-07-08T18:56:33;8.07;;;1.77;;
1523;SDS011;755;53.658;10.118;2023-07-08T19:07:00;7.32;;;2.15;;
1523;SDS011;755;53.658;10.118;2023-07-08T19:17:04;6.35;;;1.90;;
1523;SDS011;755;53.658;10.118;2023-07-08T19:27:19;7.60;;;1.67;;
1523;SDS011;755;53.658;10.118;2023-07-08T19:37:33;3.42;;;1.95;;
1523;SDS011;755;53.658;10.118;2023-07-08T19:47:44;9.63;;;2.05;;
1523;SDS011;755;53.658;10.118;2023-07-08T19:57:53;3.17;;;1.80;;
1523;SDS011;755;53.658;10.118;2023-07-08T20:08:01;8.43;;;2.28;;
1523;SDS011;755;53.658;10.118;2023-07-08T20:18:09;4.72;;;2.45;;
1523;SDS011;755;53.658;10.118;2023-07-08T20:28:28;9.32;;;2.45;;
1523;SDS011;755;53.658;10.118;2023-07-08T20:38:32;6.68;;;2.22;;
1523;SDS011;755;53.658;10.118;2023-07-08T20:48:36;7.93;;;2.30;;
1523;SDS011;755;53.658;10.118;2023-07-08T20:58:38;8.50;;;2.40;;
1523;SDS011;755;53.658;10.118;2023-07-08T21:09:01;5.00;;;2.53;;
1523;SDS011;755;53.658;10.118;2023-07-08T21:19:07;7.38;;;2.05;;
1523;SDS011;755;53.658;10.118;2023-07-08T21:29:16;7.68;;;2.53;;
1523;SDS011;755;53.658;10.118;2023-07-08T21:39:24;11.75;;;2.30;;
1523;SDS011;755;53.658;10.118;2023-07-08T21:49:37;10.02;;;2.67;;
1523;SDS011;755;53.658;10.118;2023-07-08T21:59:45;6.68;;;2.42;;
1523;SDS011;755;53.658;10.118;2023-07-08T22:09:54;8.75;;;2.70;;
1523;SDS011;755;53.658;10.118;2023-07-08T22:19:56;7.63;;;2.92;;
1523;SDS011;755;53.658;10.118;2023-07-08T22:30:00;7.13;;;2.72;;
1523;SDS011;755;53.658;10.118;2023-07-08T22:40:03;4.03;;;2.20;;
1523;SDS011;755;53.658;10.118;2023-07-08T22:50:08;9.38;;;2.42;;
1523;SDS011;755;53.658;10.118;2023-07-08T23:00:13;5.35;;;1.88;;
1523;SDS011;755;53.658;10.118;2023-07-08T23:10:21;6.63;;;2.58;;
1523;SDS011;755;53.658;10.118;2023-07-08T23:20:31;5.07;;;1.73;;
1523;SDS011;755;53.658;10.118;2023-07-08T23:30:44;4.07;;;1.80;;
1523;SDS011;755;53.658;10.118;2023-07-08T23:40:48;14.60;;;1.97;;
1523;SDS011;755;53.658;10.118;2023-07-08T23:50:57;3.65;;;1.60;;
